Time;durP1;ratioP1;P1;durP2;ratioP2;P2;SDS_P1;SDS_P2;PMS_P1;PMS_P2;Temp;Humidity;BMP_temperature;BMP_pressure;BME280_temperature;BME280_humidity;BME280_pressure;Samples;Min_cycle;Max_cycle;Signal;HPM_P1;HPM_P2
2021/03/31 00:05:27;;;;;;;4.75;3.70;;;;;;;19.04;53.02;102612.09;6278920;22;20088;-79
2021/03/31 00:08:19;;;;;;;4.88;3.50;;;;;;;19.05;52.97;102600.81;6230661;22;20035;-79
2021/03/31 00:14:58;;;;;;;5.15;3.60;;;;;;;19.02;52.98;102605.97;6269134;22;20012;-82
2021/03/31 00:39:53;;;;;;;5.85;4.00;;;;;;;19.02;53.40;102576.41;6303829;22;20014;-82
2021/03/31 00:42:38;;;;;;;4.38;3.53;;;;;;;18.99;53.24;102574.63;6271768;22;20012;-81
2021/03/31 00:45:23;;;;;;;4.32;3.30;;;;;;;18.98;53.23;102557.22;6304090;22;20094;-82
2021/03/31 00:54:33;;;;;;;5.55;4.05;;;;;;;19.01;53.28;102564.19;6304009;22;20011;-81
2021/03/31 01:00:59;;;;;;;7.20;3.60;;;;;;;18.99;53.28;102556.38;6284156;22;20017;-81
2021/03/31 01:07:10;;;;;;;4.18;3.70;;;;;;;18.99;53.25;102556.38;6242854;23;20076;-81
2021/03/31 01:13:48;;;;;;;4.78;4.00;;;;;;;18.96;53.15;102537.19;6244562;23;20032;-81
2021/03/31 01:20:20;;;;;;;4.82;3.90;;;;;;;18.98;53.11;102535.47;6253308;22;20100;-80
2021/03/31 01:30:08;;;;;;;5.28;4.28;;;;;;;18.95;53.01;102525.00;6242667;23;20014;-82
2021/03/31 01:32:53;;;;;;;4.85;3.92;;;;;;;18.94;53.01;102521.50;6241843;23;20031;-83
2021/03/31 01:35:20;;;;;;;4.05;3.65;;;;;;;18.94;52.86;102524.13;6242141;23;20036;-81
2021/03/31 01:38:26;;;;;;;4.45;3.60;;;;;;;18.93;53.01;102519.78;6242402;23;20011;-82
2021/03/31 01:41:12;;;;;;;4.32;3.85;;;;;;;18.94;53.10;102515.41;6243682;23;20015;-81
2021/03/31 01:43:52;;;;;;;5.22;4.00;;;;;;;18.91;53.12;102517.13;6165518;23;20014;-81
2021/03/31 01:46:47;;;;;;;5.30;4.00;;;;;;;18.90;52.98;102507.56;6227001;22;20000;-82
2021/03/31 01:49:34;;;;;;;5.75;4.15;;;;;;;18.92;53.14;102512.78;6242602;23;20020;-81
2021/03/31 01:59:05;;;;;;;4.28;3.63;;;;;;;18.90;52.97;102504.97;6280268;22;20030;-82
2021/03/31 02:05:03;;;;;;;5.00;3.97;;;;;;;18.88;52.87;102495.38;6211311;23;20028;-80
2021/03/31 02:27:41;;;;;;;6.32;3.80;;;;;;;18.85;52.75;102477.94;6274276;22;20022;-81
2021/03/31 02:30:45;;;;;;;4.65;4.15;;;;;;;18.85;52.81;102483.16;6228060;22;20102;-81
2021/03/31 02:39:04;;;;;;;4.45;3.72;;;;;;;18.84;52.91;102465.75;6234309;22;20020;-80
2021/03/31 02:45:35;;;;;;;4.35;3.95;;;;;;;18.84;52.91;102462.28;6252114;22;20016;-81
2021/03/31 03:20:18;;;;;;;4.63;4.13;;;;;;;18.77;52.80;102429.13;6268898;22;20358;-81
2021/03/31 03:32:11;;;;;;;5.88;4.13;;;;;;;18.77;52.65;102426.50;6281808;22;20014;-81
2021/03/31 03:44:19;;;;;;;5.47;3.72;;;;;;;18.74;52.76;102408.22;6253117;22;20058;-80
2021/03/31 03:47:29;;;;;;;4.78;3.90;;;;;;;18.72;52.55;102400.38;6241139;23;20016;-81
2021/03/31 03:50:23;;;;;;;4.85;3.95;;;;;;;18.77;52.33;102413.47;6181435;23;19989;-80
2021/03/31 04:05:55;;;;;;;5.57;4.22;;;;;;;18.73;52.51;102399.53;6282077;22;19911;-80
2021/03/31 04:15:52;;;;;;;4.95;4.07;;;;;;;18.71;52.59;102383.88;6277716;22;20031;-80
2021/03/31 04:22:26;;;;;;;3.90;3.42;;;;;;;18.70;52.44;102383.84;6293624;22;20027;-81
2021/03/31 04:25:23;;;;;;;4.47;3.55;;;;;;;18.71;52.41;102385.63;6206468;22;20012;-79
2021/03/31 04:28:04;;;;;;;4.93;3.85;;;;;;;18.70;52.47;102378.63;6209195;23;20013;-82
2021/03/31 04:36:14;;;;;;;4.28;3.75;;;;;;;18.67;52.35;102373.41;6270044;22;20031;-80
2021/03/31 04:48:56;;;;;;;4.30;3.80;;;;;;;18.68;52.24;102369.91;6273073;22;20028;-80
2021/03/31 04:52:46;;;;;;;5.60;4.18;;;;;;;18.67;52.21;102371.66;6210581;23;20021;-81
2021/03/31 05:04:52;;;;;;;4.80;4.00;;;;;;;18.65;52.17;102370.75;6272164;23;20103;-80
2021/03/31 05:17:20;;;;;;;8.30;5.40;;;;;;;18.70;52.17;102369.09;6297272;22;20051;-83
2021/03/31 05:57:37;;;;;;;10.50;5.18;;;;;;;18.96;51.39;102359.78;6298688;22;20008;-83
2021/03/31 06:13:04;;;;;;;9.80;5.40;;;;;;;19.04;51.02;102348.56;6304951;22;19922;-85
2021/03/31 06:26:29;;;;;;;7.05;5.30;;;;;;;20.41;48.02;102340.63;6281723;22;20012;-93
2021/03/31 06:29:13;;;;;;;7.45;5.38;;;;;;;20.70;47.00;102346.81;6253776;22;20012;-93
2021/03/31 06:31:43;;;;;;;7.40;5.95;;;;;;;20.86;46.32;102331.13;6254159;22;20006;-91
2021/03/31 06:34:15;;;;;;;6.00;5.32;;;;;;;21.00;46.20;102336.38;6277331;22;20006;-92
2021/03/31 06:36:48;;;;;;;9.13;5.83;;;;;;;21.13;45.62;102333.75;6251065;22;20014;-94
2021/03/31 06:39:17;;;;;;;8.00;5.95;;;;;;;21.26;45.09;102344.22;6278371;22;20079;-89
2021/03/31 06:42:00;;;;;;;8.02;6.05;;;;;;;21.35;44.63;102337.22;6277653;22;20031;-92
2021/03/31 06:47:23;;;;;;;7.25;5.85;;;;;;;21.57;43.84;102327.59;6245763;23;20039;-86
2021/03/31 06:49:49;;;;;;;8.70;6.50;;;;;;;21.73;43.44;102336.28;6246199;23;20083;-89
2021/03/31 06:52:15;;;;;;;7.18;5.55;;;;;;;21.88;43.12;102324.84;6245333;23;20347;-90
2021/03/31 06:54:50;;;;;;;9.50;6.07;;;;;;;21.97;42.77;102327.47;6246361;23;20034;-91
2021/03/31 06:57:33;;;;;;;7.45;5.85;;;;;;;22.08;42.58;102323.91;6246098;23;20363;-90
2021/03/31 07:00:09;;;;;;;8.77;5.95;;;;;;;22.02;42.46;102324.81;6224504;23;20074;-87
2021/03/31 07:02:37;;;;;;;8.32;5.68;;;;;;;22.07;42.75;102323.03;6223876;23;20030;-90
2021/03/31 07:05:04;;;;;;;8.88;6.20;;;;;;;22.00;42.73;102321.34;6246556;23;20019;-93
2021/03/31 07:07:43;;;;;;;9.30;6.05;;;;;;;22.01;42.70;102323.06;6222867;23;20385;-91
2021/03/31 07:10:08;;;;;;;7.78;5.90;;;;;;;22.05;42.48;102323.94;6250093;23;20438;-91
2021/03/31 07:12:44;;;;;;;8.20;5.80;;;;;;;22.03;42.63;102316.06;6248840;23;20000;-91
2021/03/31 07:15:12;;;;;;;8.98;6.10;;;;;;;21.97;42.58;102314.34;6253285;23;20011;-91
2021/03/31 07:17:46;;;;;;;7.70;5.80;;;;;;;21.96;42.61;102317.84;6248470;23;20008;-91
2021/03/31 07:20:12;;;;;;;11.05;6.25;;;;;;;21.87;42.77;102322.25;6222796;23;20839;-93
2021/03/31 07:22:38;;;;;;;6.82;6.10;;;;;;;21.83;43.16;102320.53;6249064;23;20012;-90
2021/03/31 07:25:05;;;;;;;8.10;5.60;;;;;;;21.91;43.04;102324.00;6224158;23;20004;-91
2021/03/31 07:27:32;;;;;;;7.97;6.45;;;;;;;21.99;43.08;102319.56;6248970;23;20039;-93
2021/03/31 07:30:12;;;;;;;9.05;6.28;;;;;;;22.12;42.28;102325.63;6222158;23;20142;-90
2021/03/31 07:32:44;;;;;;;9.60;6.13;;;;;;;22.34;41.86;102327.31;6226158;23;20027;-87
2021/03/31 07:35:11;;;;;;;9.68;6.03;;;;;;;22.55;41.37;102328.91;6228266;23;20023;-87
2021/03/31 07:37:37;;;;;;;7.95;5.80;;;;;;;22.65;41.17;102326.25;6201814;23;20011;-92
2021/03/31 07:40:09;;;;;;;8.07;5.97;;;;;;;22.73;41.06;102329.66;6227584;23;20064;-86
2021/03/31 07:42:39;;;;;;;8.00;6.07;;;;;;;22.80;40.45;102323.50;6258433;23;19992;-88
2021/03/31 07:45:07;;;;;;;8.57;5.88;;;;;;;22.91;40.28;102326.03;6227429;23;20435;-85
2021/03/31 07:47:34;;;;;;;6.32;5.53;;;;;;;22.89;40.29;102323.41;6226006;23;20351;-89
2021/03/31 07:50:00;;;;;;;7.45;5.68;;;;;;;23.00;40.08;102318.09;6222835;23;20503;-89
2021/03/31 07:52:49;;;;;;;7.22;5.68;;;;;;;23.02;40.15;102323.31;6198485;23;20110;-88
2021/03/31 07:55:35;;;;;;;7.07;5.90;;;;;;;23.02;40.08;102321.59;6222479;23;20004;-85
2021/03/31 07:58:28;;;;;;;6.65;5.78;;;;;;;23.00;39.92;102312.84;6222377;23;20335;-91
2021/03/31 08:01:03;;;;;;;7.70;5.57;;;;;;;22.94;40.01;102310.25;6222526;23;20039;-83
2021/03/31 08:03:33;;;;;;;8.02;6.00;;;;;;;22.39;41.39;102315.03;6246723;23;20079;-84
2021/03/31 08:06:19;;;;;;;8.75;5.65;;;;;;;22.52;41.56;102301.84;6220999;23;20088;-85
2021/03/31 08:08:45;;;;;;;6.75;5.70;;;;;;;22.73;40.90;102309.56;6248109;23;20008;-83
2021/03/31 08:11:11;;;;;;;6.38;5.53;;;;;;;22.71;40.86;102311.31;6221547;23;20083;-86
2021/03/31 08:13:41;;;;;;;9.02;5.95;;;;;;;22.70;40.89;102308.69;6196220;23;20008;-82
2021/03/31 08:16:27;;;;;;;7.00;5.32;;;;;;;22.68;40.93;102313.09;6247464;23;20004;-84
2021/03/31 08:18:54;;;;;;;8.35;5.65;;;;;;;22.69;40.89;102305.22;6221626;23;20004;-82
2021/03/31 08:21:29;;;;;;;7.55;5.60;;;;;;;22.63;40.97;102307.88;6194408;23;20015;-82
2021/03/31 08:23:58;;;;;;;7.72;5.75;;;;;;;22.56;41.13;102304.44;6220769;23;20019;-83
2021/03/31 08:26:35;;;;;;;6.53;5.55;;;;;;;22.44;41.44;102296.63;6247103;23;20004;-85
2021/03/31 08:29:04;;;;;;;7.25;5.45;;;;;;;22.31;41.69;102301.09;6226679;23;20008;-86
2021/03/31 08:31:41;;;;;;;5.57;4.85;;;;;;;22.14;42.17;102295.03;6252876;23;20004;-85
2021/03/31 08:34:11;;;;;;;6.65;5.85;;;;;;;22.02;42.51;102300.38;6231458;23;20036;-85
2021/03/31 08:36:37;;;;;;;7.47;5.70;;;;;;;21.86;42.77;102300.44;6260023;23;20001;-86
2021/03/31 08:39:05;;;;;;;8.30;6.05;;;;;;;21.77;43.21;102298.72;6270485;23;20000;-90
2021/03/31 08:41:31;;;;;;;8.00;5.88;;;;;;;21.64;43.41;102294.38;6237187;22;20038;-85
2021/03/31 08:44:10;;;;;;;7.78;5.80;;;;;;;21.52;43.92;102297.06;6226350;23;20325;-88
2021/03/31 08:46:35;;;;;;;6.68;5.50;;;;;;;21.42;44.04;102305.81;6224158;23;20058;-85
2021/03/31 08:49:01;;;;;;;6.85;5.68;;;;;;;21.29;44.04;102303.16;6223804;23;20435;-86
2021/03/31 08:51:26;;;;;;;7.38;5.45;;;;;;;21.24;44.53;102299.69;6224450;23;21085;-86
2021/03/31 08:53:52;;;;;;;9.07;6.07;;;;;;;21.19;44.90;102292.72;6223853;23;20004;-90
2021/03/31 08:56:22;;;;;;;6.82;5.43;;;;;;;21.10;44.97;102299.72;6200558;23;20428;-91
2021/03/31 08:58:51;;;;;;;6.20;5.43;;;;;;;21.04;45.18;102298.88;6227022;23;20007;-88
2021/03/31 09:01:32;;;;;;;7.78;5.97;;;;;;;20.98;45.30;102302.34;6254885;23;20006;-92
2021/03/31 09:04:20;;;;;;;7.53;6.28;;;;;;;20.89;45.38;102302.34;6225101;23;20385;-87
2021/03/31 09:06:46;;;;;;;9.15;6.55;;;;;;;20.85;45.69;102304.09;6250728;23;20004;-86
2021/03/31 09:09:12;;;;;;;8.07;6.60;;;;;;;20.80;45.75;102289.28;6224679;23;20313;-89
2021/03/31 09:11:37;;;;;;;7.45;5.78;;;;;;;20.78;45.60;102302.34;6201502;23;20426;-90
2021/03/31 09:14:33;;;;;;;7.95;6.68;;;;;;;20.73;45.77;102302.34;6257907;23;20008;-90
2021/03/31 09:17:08;;;;;;;8.90;6.85;;;;;;;20.69;46.01;102308.47;6221933;23;20008;-90
2021/03/31 09:19:38;;;;;;;8.32;6.78;;;;;;;20.65;46.27;102304.09;6255467;23;20015;-92
2021/03/31 09:22:11;;;;;;;8.43;6.45;;;;;;;20.59;46.00;102298.84;6226410;23;20040;-89
2021/03/31 09:24:42;;;;;;;9.18;6.50;;;;;;;20.57;46.25;102294.47;6251363;23;20012;-91
2021/03/31 09:27:09;;;;;;;9.70;6.85;;;;;;;20.54;46.36;102295.34;6248477;23;20015;-91
2021/03/31 09:29:41;;;;;;;9.65;7.30;;;;;;;20.51;46.50;102293.59;6250926;23;20000;-86
2021/03/31 09:32:08;;;;;;;11.25;7.20;;;;;;;20.46;46.46;102297.91;6250473;23;20087;-87
2021/03/31 09:34:34;;;;;;;9.48;7.22;;;;;;;20.44;46.60;102291.81;6224242;23;20012;-84
2021/03/31 09:37:06;;;;;;;9.75;7.85;;;;;;;20.43;46.64;102292.69;6197790;23;20084;-89
2021/03/31 09:39:53;;;;;;;9.68;7.03;;;;;;;20.41;46.62;102290.97;6222464;23;20011;-87
2021/03/31 09:42:29;;;;;;;8.60;7.10;;;;;;;20.35;46.88;102289.19;6250905;23;20011;-86
2021/03/31 09:44:55;;;;;;;9.80;7.38;;;;;;;20.33;46.96;102280.47;6248150;23;20005;-88
2021/03/31 09:47:23;;;;;;;9.00;7.40;;;;;;;20.32;46.91;102283.97;6249187;23;20058;-84
2021/03/31 09:49:53;;;;;;;8.95;7.22;;;;;;;20.31;46.95;102275.22;6250067;23;20023;-85
2021/03/31 09:52:31;;;;;;;10.90;7.50;;;;;;;20.30;47.01;102280.47;6249777;23;20024;-86
2021/03/31 09:55:05;;;;;;;9.93;7.65;;;;;;;20.26;46.92;102274.34;6222467;23;20011;-86
2021/03/31 09:57:31;;;;;;;9.25;6.82;;;;;;;20.25;47.00;102277.84;6222370;23;20340;-88
2021/03/31 10:00:12;;;;;;;9.32;7.55;;;;;;;20.24;47.11;102276.09;6250165;23;20000;-86
2021/03/31 10:02:40;;;;;;;12.30;7.35;;;;;;;20.23;47.21;102274.38;6222219;23;20066;-87
2021/03/31 10:05:12;;;;;;;7.82;6.90;;;;;;;20.23;47.17;102281.31;6222646;23;20028;-88
2021/03/31 10:07:37;;;;;;;10.75;6.63;;;;;;;20.23;47.47;102274.38;6250639;23;20050;-89
2021/03/31 10:10:06;;;;;;;7.88;6.50;;;;;;;20.21;47.34;102275.22;6224944;23;20012;-90
2021/03/31 10:12:33;;;;;;;8.13;6.60;;;;;;;20.21;47.40;102270.88;6250028;23;20015;-88
2021/03/31 10:15:01;;;;;;;8.77;6.75;;;;;;;20.21;47.25;102269.97;6248932;23;20012;-87
2021/03/31 10:17:31;;;;;;;7.20;6.13;;;;;;;20.20;47.37;102263.88;6248553;23;20024;-83
2021/03/31 10:20:14;;;;;;;8.60;7.03;;;;;;;20.19;47.30;102272.63;6250031;23;20000;-85
2021/03/31 10:22:41;;;;;;;7.32;6.57;;;;;;;20.18;47.35;102262.16;6221752;23;20060;-85
2021/03/31 10:25:14;;;;;;;8.52;6.43;;;;;;;20.17;47.36;102266.50;6249181;23;20015;-88
2021/03/31 10:27:41;;;;;;;;;;;;;;;20.19;47.42;102275.22;6248827;23;20007;-85
2021/03/31 10:30:07;;;;;;;7.38;6.18;;;;;;;20.17;47.31;102256.06;6246933;23;19922;-86
2021/03/31 10:32:39;;;;;;;9.93;5.85;;;;;;;20.17;47.34;102263.03;6246162;23;20000;-84
2021/03/31 10:35:07;;;;;;;8.02;6.10;;;;;;;20.17;47.42;102265.66;6198035;23;20126;-86
2021/03/31 10:37:39;;;;;;;7.85;6.07;;;;;;;20.17;47.57;102263.91;6196821;23;20004;-84
2021/03/31 10:54:10;;;;;;;9.40;7.20;;;;;;;20.12;47.35;102256.03;6253815;23;20453;-87
2021/03/31 10:56:37;;;;;;;11.23;7.37;;;;;;;20.12;47.20;102257.75;6226375;23;20023;-86
2021/03/31 10:59:04;;;;;;;8.68;7.05;;;;;;;20.11;47.16;102256.91;6233135;23;20087;-90
2021/03/31 11:01:38;;;;;;;7.65;6.00;;;;;;;20.13;47.01;102254.28;6236665;23;20008;-90
2021/03/31 11:04:03;;;;;;;7.25;5.97;;;;;;;20.13;47.29;102246.47;6234637;23;20011;-88
2021/03/31 11:06:31;;;;;;;8.32;6.00;;;;;;;20.13;47.14;102247.31;6209757;23;20407;-90
2021/03/31 11:08:56;;;;;;;7.65;5.97;;;;;;;20.10;46.98;102249.94;6233822;23;20019;-85
2021/03/31 11:11:22;;;;;;;8.30;6.32;;;;;;;20.10;47.04;102249.94;6236119;23;20004;-85
2021/03/31 11:13:47;;;;;;;9.48;6.00;;;;;;;20.11;46.95;102246.44;6234644;23;20034;-85
2021/03/31 11:16:14;;;;;;;7.75;6.03;;;;;;;20.13;46.84;102254.28;6233821;23;20015;-90
2021/03/31 11:26:52;;;;;;;9.30;6.10;;;;;;;20.11;46.70;102235.13;6238801;23;20035;-87
2021/03/31 11:29:17;;;;;;;7.88;6.20;;;;;;;20.11;46.69;102224.66;6233254;23;20019;-85
2021/03/31 11:31:44;;;;;;;8.10;5.90;;;;;;;20.12;46.58;102234.25;6209321;23;20004;-87
2021/03/31 11:34:10;;;;;;;9.70;7.25;;;;;;;20.12;46.63;102237.75;6236534;23;20015;-85
2021/03/31 11:36:35;;;;;;;9.32;6.93;;;;;;;20.10;46.44;102226.41;6212309;23;20020;-87
2021/03/31 11:39:15;;;;;;;8.82;6.03;;;;;;;20.11;46.53;102224.66;6209021;23;20020;-86
2021/03/31 11:42:07;;;;;;;7.43;5.25;;;;;;;20.14;46.44;102227.28;6234720;23;20000;-87
2021/03/31 11:44:48;;;;;;;9.77;6.43;;;;;;;20.16;46.54;102222.94;6233469;23;20027;-88
2021/03/31 11:47:14;;;;;;;6.63;5.40;;;;;;;20.16;46.75;102216.84;6205661;23;20032;-85
2021/03/31 11:49:48;;;;;;;7.78;5.40;;;;;;;20.16;46.44;102209.84;6234354;23;20012;-87
2021/03/31 11:52:14;;;;;;;;;;;;;;;20.17;46.38;102215.97;6235608;23;20016;-86
2021/03/31 11:54:39;;;;;;;9.93;7.50;;;;;;;20.15;46.41;102202.91;6230471;23;19976;-84
2021/03/31 12:00:28;;;;;;;7.97;5.60;;;;;;;20.17;46.64;102202.91;6236725;23;20019;-86
2021/03/31 12:02:54;;;;;;;7.13;5.13;;;;;;;20.15;46.55;102195.06;6234101;23;20425;-85
2021/03/31 12:05:25;;;;;;;6.65;5.13;;;;;;;20.17;46.51;102197.69;6257908;23;20088;-85
2021/03/31 12:08:06;;;;;;;8.02;4.93;;;;;;;20.17;46.61;102197.69;6234250;23;20008;-86
2021/03/31 12:10:32;;;;;;;7.22;5.07;;;;;;;20.17;46.68;102188.09;6237004;23;20004;-87
2021/03/31 12:13:20;;;;;;;6.25;5.47;;;;;;;20.20;46.66;102195.06;6207725;23;20452;-84
2021/03/31 12:16:23;;;;;;;6.60;5.40;;;;;;;20.20;46.66;102192.44;6236323;23;20019;-87
2021/03/31 12:18:49;;;;;;;5.80;4.97;;;;;;;20.20;46.60;102188.09;6238035;23;20336;-83
2021/03/31 12:21:15;;;;;;;7.45;5.22;;;;;;;20.20;46.62;102193.31;6210827;23;20051;-86
2021/03/31 12:23:41;;;;;;;6.80;4.78;;;;;;;20.21;46.71;102188.94;6209146;23;20450;-88
2021/03/31 12:26:10;;;;;;;6.47;4.75;;;;;;;20.23;46.69;102193.34;6237173;23;20001;-89
2021/03/31 12:28:58;;;;;;;6.00;4.88;;;;;;;20.23;46.52;102195.94;6212500;23;20012;-85
2021/03/31 12:31:24;;;;;;;6.43;4.85;;;;;;;20.25;46.61;102195.94;6242481;23;20015;-85
2021/03/31 12:33:50;;;;;;;6.82;4.95;;;;;;;20.25;46.62;102199.44;6268462;22;20052;-88
2021/03/31 12:36:16;;;;;;;7.22;4.90;;;;;;;20.23;46.65;102188.09;6236080;23;20031;-87
2021/03/31 12:38:42;;;;;;;7.30;4.90;;;;;;;20.22;46.61;102183.72;6233809;23;20007;-82
2021/03/31 12:41:07;;;;;;;7.07;5.30;;;;;;;20.24;46.61;102192.44;6208139;23;20012;-83
2021/03/31 12:43:35;;;;;;;8.57;6.28;;;;;;;20.24;46.55;102186.34;6233920;23;20005;-87
2021/03/31 12:46:00;;;;;;;9.07;6.63;;;;;;;20.22;46.53;102177.66;6228011;23;20001;-85
2021/03/31 12:48:26;;;;;;;6.10;5.13;;;;;;;20.23;46.67;102181.97;6228252;23;20024;-85
2021/03/31 12:50:57;;;;;;;6.88;6.00;;;;;;;20.21;46.42;102171.56;6193496;23;20332;-82
2021/03/31 12:53:32;;;;;;;9.73;7.13;;;;;;;20.22;46.62;102181.13;6220314;23;20027;-82
2021/03/31 12:55:59;;;;;;;7.35;5.45;;;;;;;20.24;46.49;102181.13;6249335;23;20364;-85
2021/03/31 12:58:24;;;;;;;6.85;5.70;;;;;;;20.25;46.17;102180.25;6199209;23;20009;-85
2021/03/31 13:00:52;;;;;;;6.88;5.63;;;;;;;20.25;46.48;102180.25;6223105;23;20015;-84
2021/03/31 13:03:18;;;;;;;6.93;5.55;;;;;;;20.25;46.59;102178.53;6217910;23;20439;-84
2021/03/31 13:05:43;;;;;;;8.20;5.65;;;;;;;20.26;46.51;102180.25;6222786;23;20001;-82
2021/03/31 13:08:10;;;;;;;5.80;4.93;;;;;;;20.26;46.59;102166.31;6192630;23;20096;-85
2021/03/31 13:10:36;;;;;;;6.35;4.95;;;;;;;20.24;46.51;102161.09;6193659;23;20019;-82
2021/03/31 13:13:53;;;;;;;8.02;5.05;;;;;;;20.26;46.55;102169.81;6218672;23;20032;-86
2021/03/31 13:24:11;;;;;;;7.53;5.65;;;;;;;20.28;46.56;102148.91;6220702;23;20085;-86
2021/03/31 13:29:42;;;;;;;7.43;5.20;;;;;;;20.28;46.58;102155.00;6196437;23;20016;-84
2021/03/31 13:32:22;;;;;;;5.70;5.10;;;;;;;20.28;46.60;102156.75;6216644;23;20023;-83
2021/03/31 13:34:53;;;;;;;6.10;4.93;;;;;;;20.29;46.66;102158.47;6225549;22;20004;-83
2021/03/31 13:37:24;;;;;;;6.95;5.35;;;;;;;20.28;46.56;102141.91;6252786;22;20486;-83
2021/03/31 13:39:51;;;;;;;7.20;5.30;;;;;;;20.30;46.59;102147.16;6253855;22;20019;-85
2021/03/31 13:42:19;;;;;;;6.75;5.20;;;;;;;20.28;46.95;102144.53;6280101;22;20004;-85
2021/03/31 13:44:45;;;;;;;7.38;5.22;;;;;;;20.31;46.65;102144.53;6248094;23;20064;-88
2021/03/31 13:47:28;;;;;;;6.82;5.10;;;;;;;20.32;46.64;102140.19;6272096;23;20004;-83
2021/03/31 13:50:23;;;;;;;6.20;4.97;;;;;;;20.32;46.53;102143.66;6270672;23;20008;-88
2021/03/31 13:56:42;;;;;;;7.47;5.10;;;;;;;20.35;46.37;102137.56;6271027;23;20015;-85
2021/03/31 13:59:10;;;;;;;7.13;5.20;;;;;;;20.36;46.36;102139.31;6242634;23;19988;-85
2021/03/31 14:01:35;;;;;;;6.63;5.22;;;;;;;20.37;46.30;102140.19;6205386;23;20008;-88
2021/03/31 14:04:01;;;;;;;6.38;5.18;;;;;;;20.35;46.33;102133.19;6232131;23;20059;-87
2021/03/31 14:06:26;;;;;;;6.82;5.30;;;;;;;20.36;46.26;102134.09;6234537;23;20000;-85
2021/03/31 14:08:53;;;;;;;7.22;5.47;;;;;;;20.38;46.22;102139.28;6212530;23;20004;-89
2021/03/31 14:14:22;;;;;;;6.88;5.60;;;;;;;20.43;46.04;102143.66;6262617;23;20027;-88
2021/03/31 14:16:58;;;;;;;8.13;5.20;;;;;;;20.42;46.05;102133.19;6231603;23;20016;-85
2021/03/31 14:19:24;;;;;;;6.35;4.82;;;;;;;20.43;46.22;102127.09;6230635;23;20016;-91
2021/03/31 14:21:50;;;;;;;5.95;4.72;;;;;;;20.45;46.02;102135.81;6203118;23;20004;-90
2021/03/31 14:24:15;;;;;;;6.35;4.72;;;;;;;20.45;45.97;102135.81;6231496;23;20083;-92
2021/03/31 14:26:41;;;;;;;6.72;4.70;;;;;;;20.44;46.03;102128.84;6259168;23;20060;-88
2021/03/31 14:29:07;;;;;;;7.22;4.57;;;;;;;20.44;46.04;102131.44;6256387;23;20008;-90
2021/03/31 14:31:34;;;;;;;5.88;4.30;;;;;;;20.45;46.05;102134.06;6231503;23;20458;-90
2021/03/31 14:34:00;;;;;;;4.70;4.20;;;;;;;20.45;45.93;102128.84;6234335;23;20019;-88
2021/03/31 14:36:25;;;;;;;5.78;4.13;;;;;;;20.46;46.23;102127.09;6233841;23;20078;-89
2021/03/31 14:38:51;;;;;;;5.97;4.40;;;;;;;20.46;46.12;102124.47;6233170;23;20012;-90
2021/03/31 14:41:16;;;;;;;5.22;4.07;;;;;;;20.44;46.21;102123.59;6256696;23;20027;-89
2021/03/31 14:43:42;;;;;;;6.43;4.22;;;;;;;20.44;46.12;102121.84;6258465;23;20004;-88
2021/03/31 14:46:07;;;;;;;6.63;4.30;;;;;;;20.43;46.13;102119.25;6235428;23;20023;-86
2021/03/31 14:48:35;;;;;;;5.28;4.38;;;;;;;20.45;46.20;102122.75;6260393;23;20074;-89
2021/03/31 14:51:00;;;;;;;5.15;4.00;;;;;;;20.42;46.18;102112.28;6180717;23;20015;-86
2021/03/31 15:01:32;;;;;;;5.15;3.63;;;;;;;20.48;46.50;102120.97;6236390;23;20038;-84
2021/03/31 15:03:57;;;;;;;4.47;3.97;;;;;;;20.50;46.30;102107.91;6206773;23;20012;-89
2021/03/31 15:06:23;;;;;;;6.47;4.00;;;;;;;20.52;46.34;102112.25;6230571;23;20416;-86
2021/03/31 15:08:48;;;;;;;5.18;3.75;;;;;;;20.54;46.04;102105.28;6231628;23;20008;-87
2021/03/31 15:11:13;;;;;;;4.20;3.67;;;;;;;20.52;46.19;102098.31;6207436;23;20012;-88
2021/03/31 15:13:39;;;;;;;5.20;3.78;;;;;;;20.52;46.04;102107.03;6231816;23;20012;-89
2021/03/31 15:16:05;;;;;;;5.75;4.00;;;;;;;20.50;46.17;102106.16;6231043;23;20024;-87
2021/03/31 15:18:30;;;;;;;4.82;3.90;;;;;;;20.49;46.33;102098.31;6257129;23;20004;-91
2021/03/31 15:21:29;;;;;;;5.50;3.58;;;;;;;20.50;46.26;102098.31;6235754;23;20032;-87
2021/03/31 15:23:44;;;;;;;6.00;3.38;;;;;;;20.49;46.42;102099.22;6238003;23;20489;-87
2021/03/31 15:26:09;;;;;;;4.60;3.63;;;;;;;20.49;46.37;102104.44;6233476;23;20011;-90
2021/03/31 15:28:35;;;;;;;5.00;3.95;;;;;;;20.49;46.45;102107.06;6211270;23;20076;-86
2021/03/31 15:31:06;;;;;;;4.40;3.75;;;;;;;20.47;46.42;102103.56;6265568;23;20004;-86
2021/03/31 15:33:35;;;;;;;5.93;4.22;;;;;;;20.48;46.48;102100.06;6239749;23;20000;-88
2021/03/31 15:36:00;;;;;;;6.28;3.80;;;;;;;20.46;46.61;102107.03;6263596;23;20013;-86
2021/03/31 15:38:26;;;;;;;6.32;3.65;;;;;;;20.45;46.61;102097.47;6186598;23;20026;-86
2021/03/31 15:40:52;;;;;;;6.78;4.00;;;;;;;20.44;46.32;102094.84;6234658;23;20027;-86
2021/03/31 15:43:18;;;;;;;6.13;3.90;;;;;;;20.42;46.47;102096.59;6235202;23;20012;-85
2021/03/31 15:45:43;;;;;;;5.97;4.10;;;;;;;20.42;46.55;102096.59;6238159;23;20011;-86
2021/03/31 15:48:10;;;;;;;5.47;3.53;;;;;;;20.41;46.36;102107.94;6216084;23;20038;-88
2021/03/31 15:50:37;;;;;;;4.47;3.63;;;;;;;20.42;46.81;102099.19;6266806;23;20037;-85
2021/03/31 15:53:02;;;;;;;5.15;3.90;;;;;;;20.38;46.61;102098.31;6266134;23;20000;-86
2021/03/31 15:55:28;;;;;;;4.78;3.83;;;;;;;20.39;46.63;102105.31;6264666;23;20011;-86
2021/03/31 15:57:53;;;;;;;5.80;4.18;;;;;;;20.40;46.63;102101.81;6211954;23;20000;-87
2021/03/31 16:00:19;;;;;;;4.97;3.97;;;;;;;20.41;46.64;102103.56;6263502;23;20028;-88
2021/03/31 16:02:45;;;;;;;4.97;3.80;;;;;;;20.38;46.45;102108.78;6264126;23;20087;-88
2021/03/31 16:05:13;;;;;;;5.88;4.43;;;;;;;20.38;46.62;102098.31;6236013;23;20035;-86
2021/03/31 16:07:39;;;;;;;5.25;4.40;;;;;;;20.41;46.48;102105.31;6234728;23;20430;-88
2021/03/31 16:10:10;;;;;;;5.63;3.88;;;;;;;20.41;46.43;102095.72;6208817;23;20011;-89
2021/03/31 16:12:42;;;;;;;6.05;4.03;;;;;;;20.38;46.60;102087.88;6235702;23;20474;-85
2021/03/31 16:15:08;;;;;;;4.47;3.88;;;;;;;20.40;46.41;102087.88;6261858;23;20356;-84
2021/03/31 16:17:34;;;;;;;5.20;3.95;;;;;;;20.40;46.45;102090.50;6261230;23;19999;-86
2021/03/31 16:19:59;;;;;;;6.55;4.13;;;;;;;20.41;46.59;102097.47;6237929;23;20063;-88
2021/03/31 16:22:26;;;;;;;6.35;4.10;;;;;;;20.40;46.51;102093.97;6238724;23;20008;-86
2021/03/31 16:24:53;;;;;;;6.07;4.35;;;;;;;20.41;46.46;102095.72;6265355;23;20067;-89
2021/03/31 16:27:19;;;;;;;6.57;4.00;;;;;;;20.38;46.30;102097.47;6263627;23;20140;-86
2021/03/31 16:32:23;;;;;;;5.70;4.20;;;;;;;20.37;46.82;102086.13;6269587;23;20016;-90
2021/03/31 16:34:49;;;;;;;5.97;4.40;;;;;;;20.37;46.44;102085.28;6240741;23;20005;-85
2021/03/31 16:37:15;;;;;;;5.72;4.32;;;;;;;20.36;46.59;102084.41;6240763;23;20026;-83
2021/03/31 16:39:40;;;;;;;6.50;4.60;;;;;;;20.34;46.64;102081.78;6267253;23;20016;-85
2021/03/31 16:42:08;;;;;;;5.82;4.63;;;;;;;20.38;46.60;102095.72;6242017;23;20050;-88
2021/03/31 16:44:38;;;;;;;6.47;4.28;;;;;;;20.34;46.79;102084.41;6242053;23;20008;-88
2021/03/31 16:47:05;;;;;;;5.93;4.47;;;;;;;20.34;46.53;102084.41;6240481;23;19996;-88
2021/03/31 17:05:33;;;;;;;6.28;4.75;;;;;;;20.28;46.68;102092.25;6297032;22;20030;-91
2021/03/31 17:07:58;;;;;;;6.03;4.80;;;;;;;20.29;46.57;102093.13;6264224;22;20012;-86
2021/03/31 17:10:26;;;;;;;5.38;4.40;;;;;;;20.24;46.38;102090.50;6234330;22;20007;-86
2021/03/31 17:19:03;;;;;;;13.85;4.53;;;;;;;20.21;46.79;102081.78;6293844;22;20054;-87
2021/03/31 17:21:28;;;;;;;10.70;5.20;;;;;;;20.21;46.84;102087.91;6272702;22;20022;-85
2021/03/31 17:27:17;;;;;;;8.13;5.03;;;;;;;20.22;47.20;102081.78;6296306;22;20441;-89
2021/03/31 17:29:45;;;;;;;10.00;5.53;;;;;;;20.21;47.29;102080.06;6215735;22;20439;-86
2021/03/31 17:32:11;;;;;;;9.95;6.57;;;;;;;20.23;47.25;102080.94;6238650;22;20004;-85
2021/03/31 17:34:37;;;;;;;12.82;8.25;;;;;;;20.22;47.61;102084.41;6289878;22;20031;-86
2021/03/31 17:37:26;;;;;;;15.98;7.97;;;;;;;20.22;47.46;102079.19;6264239;22;20003;-86
2021/03/31 17:39:51;;;;;;;12.10;7.95;;;;;;;20.21;47.57;102079.19;6293491;22;20000;-84